createdAt,value
2019-03-31T00:01:54.452Z,6.50
2019-03-31T00:04:25.576Z,6.40
2019-03-31T00:06:56.686Z,6.40
2019-03-31T00:09:27.719Z,6.40
2019-03-31T00:11:58.927Z,6.40
2019-03-31T00:14:30.191Z,6.30
2019-03-31T00:17:02.569Z,6.30
2019-03-31T00:19:33.634Z,6.30
2019-03-31T00:22:05.128Z,6.30
2019-03-31T00:24:36.187Z,6.40
2019-03-31T00:27:07.552Z,6.40
2019-03-31T00:29:38.620Z,6.40
2019-03-31T00:32:09.931Z,6.40
2019-03-31T00:34:41.088Z,6.30
2019-03-31T00:37:12.260Z,6.20
2019-03-31T00:39:43.440Z,6.10
2019-03-31T00:42:14.500Z,6.00
2019-03-31T00:44:45.664Z,5.90
2019-03-31T00:47:16.838Z,5.90
2019-03-31T00:49:48.043Z,5.90
2019-03-31T00:52:19.053Z,5.80
2019-03-31T00:54:50.095Z,5.80
2019-03-31T00:57:21.283Z,5.70
2019-03-31T00:59:52.305Z,5.70
2019-03-31T01:02:27.140Z,5.70
2019-03-31T01:04:58.510Z,5.60
2019-03-31T01:07:29.654Z,5.60
2019-03-31T01:10:00.941Z,5.60
2019-03-31T01:12:32.270Z,5.50
2019-03-31T01:15:05.320Z,5.50
2019-03-31T01:17:36.447Z,5.50
2019-03-31T01:20:08.412Z,5.50
2019-03-31T01:22:39.691Z,5.50
2019-03-31T01:25:11.547Z,5.40
2019-03-31T01:27:42.933Z,5.40
2019-03-31T01:30:15.852Z,5.40
2019-03-31T01:32:46.953Z,5.40
2019-03-31T01:35:18.567Z,5.30
2019-03-31T01:37:49.860Z,5.40
2019-03-31T01:40:21.048Z,5.40
2019-03-31T01:42:52.119Z,5.30
2019-03-31T01:45:23.708Z,5.30
2019-03-31T01:47:54.877Z,5.20
2019-03-31T01:50:26.899Z,5.10
2019-03-31T01:52:58.042Z,5.10
2019-03-31T01:55:29.259Z,5.00
2019-03-31T01:58:00.427Z,5.00
2019-03-31T02:00:38.163Z,5.00
2019-03-31T02:03:09.443Z,5.00
2019-03-31T02:05:40.626Z,5.00
2019-03-31T02:08:11.816Z,5.00
2019-03-31T02:10:43.032Z,5.00
2019-03-31T02:13:14.209Z,4.90
2019-03-31T02:15:45.347Z,4.90
2019-03-31T02:18:16.555Z,4.90
2019-03-31T02:20:47.678Z,4.80
2019-03-31T02:23:18.828Z,4.80
2019-03-31T02:25:49.957Z,4.90
2019-03-31T02:28:21.127Z,4.90
2019-03-31T02:30:52.409Z,4.80
2019-03-31T02:33:23.440Z,4.80
2019-03-31T02:35:54.736Z,4.70
2019-03-31T02:38:25.821Z,4.70
2019-03-31T02:40:57.056Z,4.60
2019-03-31T02:43:28.323Z,4.60
2019-03-31T02:45:59.450Z,4.50
2019-03-31T02:48:32.566Z,4.40
2019-03-31T02:51:03.851Z,4.50
2019-03-31T02:53:35.184Z,4.50
2019-03-31T02:56:06.999Z,4.40
2019-03-31T02:58:39.228Z,4.40
2019-03-31T03:01:10.801Z,4.40
2019-03-31T03:03:42.873Z,4.40
2019-03-31T03:06:15.837Z,4.40
2019-03-31T03:08:51.864Z,4.40
2019-03-31T03:11:24.375Z,4.30
2019-03-31T03:13:58.986Z,4.30
2019-03-31T03:16:30.298Z,4.30
2019-03-31T03:19:01.515Z,4.30
2019-03-31T03:21:32.696Z,4.20
2019-03-31T03:24:03.968Z,4.20
2019-03-31T03:26:35.193Z,4.20
2019-03-31T03:29:06.312Z,4.20
2019-03-31T03:31:37.601Z,4.20
2019-03-31T03:34:08.722Z,4.20
2019-03-31T03:36:43.146Z,4.20
2019-03-31T03:39:12.772Z,4.10
2019-03-31T03:41:44.149Z,4.10
2019-03-31T03:44:15.307Z,4.10
2019-03-31T03:46:46.574Z,4.10
2019-03-31T03:49:17.937Z,4.00
2019-03-31T03:51:49.273Z,4.00
2019-03-31T03:54:20.328Z,4.00
2019-03-31T03:56:51.510Z,3.90
2019-03-31T03:59:22.550Z,3.90
2019-03-31T04:01:53.926Z,3.90
2019-03-31T04:04:24.917Z,3.90
2019-03-31T04:06:56.089Z,3.90
2019-03-31T04:09:27.210Z,3.90
2019-03-31T04:11:58.399Z,3.90
2019-03-31T04:14:29.466Z,4.00
2019-03-31T04:17:00.702Z,3.90
2019-03-31T04:19:31.939Z,3.90
2019-03-31T04:22:03.037Z,3.80
2019-03-31T04:24:34.359Z,3.80
2019-03-31T04:27:05.553Z,3.70
2019-03-31T04:29:36.632Z,3.70
2019-03-31T04:32:07.921Z,3.70
2019-03-31T04:34:39.082Z,3.70
2019-03-31T04:37:10.220Z,3.70
2019-03-31T04:39:41.269Z,3.60
2019-03-31T04:42:12.342Z,3.60
2019-03-31T04:44:43.543Z,3.60
2019-03-31T04:47:14.655Z,3.50
2019-03-31T04:49:45.777Z,3.50
2019-03-31T04:52:17.015Z,3.60
2019-03-31T04:54:48.156Z,3.50
2019-03-31T05:00:21.635Z,3.40
2019-03-31T05:02:52.797Z,3.50
2019-03-31T05:05:23.878Z,3.40
2019-03-31T05:07:55.044Z,3.50
2019-03-31T05:10:26.193Z,3.50
2019-03-31T05:12:57.556Z,3.40
2019-03-31T05:15:28.680Z,3.50
2019-03-31T05:18:00.982Z,3.50
2019-03-31T05:20:32.112Z,3.50
2019-03-31T05:23:03.416Z,3.60
2019-03-31T05:25:34.668Z,3.60
2019-03-31T05:28:06.881Z,3.60
2019-03-31T05:30:38.221Z,3.60
2019-03-31T05:33:09.490Z,3.70
2019-03-31T05:35:40.798Z,3.70
2019-03-31T05:38:12.100Z,3.70
2019-03-31T05:40:43.428Z,3.80
2019-03-31T05:43:14.628Z,3.80
2019-03-31T05:45:46.002Z,3.90
2019-03-31T05:48:17.151Z,4.00
2019-03-31T05:50:48.218Z,4.00
2019-03-31T05:53:19.487Z,4.10
2019-03-31T05:55:50.721Z,4.10
2019-03-31T05:58:21.906Z,4.20
2019-03-31T06:00:53.682Z,4.30
2019-03-31T06:03:24.901Z,4.40
2019-03-31T06:05:56.065Z,4.60
2019-03-31T06:08:27.223Z,4.60
2019-03-31T06:10:59.493Z,4.80
2019-03-31T06:13:30.608Z,4.90
2019-03-31T06:16:02.087Z,5.00
2019-03-31T06:18:33.332Z,5.10
2019-03-31T06:52:14.578Z,7.20
2019-03-31T06:54:45.663Z,7.40
2019-03-31T06:57:16.788Z,7.50
2019-03-31T06:59:48.028Z,7.80
2019-03-31T07:02:19.370Z,8.00
2019-03-31T07:05:00.429Z,8.20
2019-03-31T07:07:23.921Z,8.30
2019-03-31T07:09:55.276Z,8.50
2019-03-31T07:12:26.595Z,8.70
2019-03-31T07:14:57.759Z,8.80
2019-03-31T07:17:29.004Z,9.00
2019-03-31T07:20:00.170Z,9.10
2019-03-31T07:22:31.662Z,9.30
2019-03-31T07:25:02.802Z,9.40
2019-03-31T07:27:34.012Z,9.60
2019-03-31T07:30:07.253Z,9.80
2019-03-31T07:32:38.777Z,9.90
2019-03-31T09:53:15.924Z,17.00
2019-03-31T09:55:47.279Z,16.90
2019-03-31T09:58:18.875Z,17.00
2019-03-31T10:00:52.391Z,17.20
2019-03-31T10:03:24.085Z,17.40
2019-03-31T10:06:04.425Z,17.60
2019-03-31T10:08:28.882Z,17.70
2019-03-31T10:11:02.880Z,17.80
2019-03-31T10:13:33.808Z,17.80
2019-03-31T10:16:05.246Z,17.80
2019-03-31T10:18:36.659Z,17.80
2019-03-31T10:21:08.146Z,17.80
2019-03-31T10:23:39.317Z,17.80
2019-03-31T10:26:10.620Z,17.90
2019-03-31T10:28:42.075Z,18.00
2019-03-31T10:31:13.485Z,17.90
2019-03-31T10:33:54.896Z,18.00
2019-03-31T10:36:26.373Z,18.00
2019-03-31T10:38:57.701Z,18.00
2019-03-31T10:41:30.920Z,18.00
2019-03-31T10:44:02.154Z,18.00
2019-03-31T10:46:37.798Z,18.00
2019-03-31T10:49:11.171Z,18.10
2019-03-31T10:51:42.879Z,18.10
2019-03-31T10:54:14.788Z,18.10
2019-03-31T10:56:48.754Z,18.20
2019-03-31T10:59:20.113Z,18.30
2019-03-31T11:01:51.547Z,18.40
2019-03-31T11:04:22.795Z,18.50
2019-03-31T11:06:59.697Z,18.60
2019-03-31T11:09:27.323Z,18.60
2019-03-31T11:11:58.740Z,18.70
2019-03-31T11:14:30.004Z,18.70
2019-03-31T11:17:01.537Z,18.80
2019-03-31T11:19:32.795Z,18.90
2019-03-31T11:22:25.935Z,18.90
2019-03-31T11:24:57.309Z,18.90
2019-03-31T11:27:28.757Z,18.80
2019-03-31T11:30:00.368Z,18.70
2019-03-31T11:32:31.825Z,18.70
2019-03-31T13:49:44.689Z,18.60
2019-03-31T13:52:16.959Z,18.40
2019-03-31T13:54:48.072Z,18.30
2019-03-31T13:57:19.706Z,18.60
2019-03-31T13:59:51.358Z,18.90
2019-03-31T14:02:23.211Z,19.20
2019-03-31T14:04:54.249Z,19.30
2019-03-31T14:07:25.384Z,19.50
2019-03-31T14:09:56.324Z,19.60
2019-03-31T14:12:27.396Z,19.70
2019-03-31T14:14:58.453Z,19.80
2019-03-31T14:17:29.600Z,19.90
2019-03-31T14:20:00.530Z,19.80
2019-03-31T14:22:31.685Z,19.70
2019-03-31T14:25:02.650Z,19.80
2019-03-31T14:27:33.758Z,20.00
2019-03-31T14:30:05.342Z,20.00
2019-03-31T14:32:36.545Z,20.10
2019-03-31T14:35:08.091Z,20.20
2019-03-31T14:37:39.328Z,20.20
2019-03-31T14:40:10.522Z,20.10
2019-03-31T14:42:41.654Z,20.10
2019-03-31T14:45:28.439Z,20.00
2019-03-31T14:47:59.689Z,20.00
2019-03-31T14:50:36.074Z,19.90
2019-03-31T14:53:07.735Z,19.90
2019-03-31T14:55:39.167Z,19.90
2019-03-31T14:58:10.370Z,20.00
2019-03-31T15:00:41.568Z,20.00
2019-03-31T15:03:12.822Z,19.80
2019-03-31T15:05:44.039Z,19.60
2019-03-31T15:08:15.201Z,19.50
2019-03-31T15:10:46.365Z,19.50
2019-03-31T15:13:17.410Z,19.50
2019-03-31T15:15:48.553Z,19.60
2019-03-31T15:18:19.511Z,19.70
2019-03-31T15:20:50.697Z,19.80
2019-03-31T15:23:28.883Z,19.90
2019-03-31T15:25:54.897Z,19.90
2019-03-31T15:28:26.064Z,19.80
2019-03-31T15:30:57.212Z,19.70
2019-03-31T15:33:28.263Z,19.70
2019-03-31T15:35:59.354Z,19.50
2019-03-31T15:38:30.757Z,19.50
2019-03-31T15:41:02.070Z,19.40
2019-03-31T15:43:33.380Z,19.30
2019-03-31T15:46:04.550Z,19.30
2019-03-31T15:48:35.857Z,19.30
2019-03-31T15:51:07.104Z,19.20
2019-03-31T15:53:38.802Z,19.30
2019-03-31T15:56:10.078Z,19.20
2019-03-31T15:58:41.298Z,19.30
2019-03-31T16:01:12.695Z,19.30
2019-03-31T16:03:43.826Z,19.20
2019-03-31T16:06:14.929Z,19.30
2019-03-31T16:08:45.466Z,19.30
2019-03-31T16:11:15.953Z,19.20
2019-03-31T16:13:46.210Z,19.20
2019-03-31T16:16:16.694Z,19.20
2019-03-31T16:18:46.967Z,19.10
2019-03-31T16:21:17.354Z,19.00
2019-03-31T16:23:47.644Z,19.00
2019-03-31T16:26:17.935Z,19.00
2019-03-31T16:28:48.081Z,19.00
2019-03-31T16:31:18.620Z,18.90
2019-03-31T16:33:49.032Z,18.90
2019-03-31T16:36:19.407Z,18.80
2019-03-31T16:38:49.663Z,18.60
2019-03-31T16:41:19.980Z,18.60
2019-03-31T16:43:50.239Z,18.50
2019-03-31T16:46:20.804Z,18.50
2019-03-31T16:48:51.202Z,18.40
2019-03-31T16:51:21.664Z,18.30
2019-03-31T16:53:51.913Z,18.20
2019-03-31T16:56:22.353Z,18.10
2019-03-31T16:58:52.641Z,18.00
2019-03-31T17:01:22.929Z,18.00
2019-03-31T17:03:53.316Z,17.90
2019-03-31T17:06:23.824Z,17.80
2019-03-31T17:08:54.296Z,17.70
2019-03-31T17:11:24.726Z,17.50
2019-03-31T17:13:55.204Z,17.40
2019-03-31T17:16:25.745Z,17.30
2019-03-31T17:18:57.131Z,17.20
2019-03-31T17:21:27.396Z,17.00
2019-03-31T17:23:57.735Z,17.00
2019-03-31T17:26:28.053Z,17.00
2019-03-31T17:28:58.488Z,16.90
2019-03-31T17:31:28.876Z,16.90
2019-03-31T17:33:59.180Z,16.90
2019-03-31T17:36:29.444Z,16.90
2019-03-31T17:38:59.639Z,16.80
2019-03-31T17:41:30.460Z,16.70
2019-03-31T17:44:00.702Z,16.60
2019-03-31T17:46:31.284Z,16.50
2019-03-31T17:49:01.636Z,16.40
2019-03-31T17:51:32.245Z,16.20
2019-03-31T17:54:06.012Z,16.10
2019-03-31T17:56:34.959Z,16.00
2019-03-31T17:59:08.719Z,15.80
2019-03-31T18:01:37.719Z,15.70
2019-03-31T18:04:08.113Z,15.50
2019-03-31T18:06:38.441Z,15.30
2019-03-31T18:09:09.916Z,15.30
2019-03-31T18:11:40.399Z,15.20
2019-03-31T18:14:10.867Z,15.10
2019-03-31T18:16:41.323Z,15.00
2019-03-31T18:19:11.881Z,14.90
2019-03-31T18:21:42.322Z,14.80
2019-03-31T18:24:12.765Z,14.70
2019-03-31T18:26:43.268Z,14.60
2019-03-31T18:29:13.489Z,14.50
2019-03-31T18:31:43.841Z,14.50
2019-03-31T18:34:14.043Z,14.40
2019-03-31T18:36:44.475Z,14.30
2019-03-31T18:39:14.760Z,14.10
2019-03-31T18:41:44.949Z,14.00
2019-03-31T18:44:15.141Z,13.90
2019-03-31T18:46:45.604Z,13.80
2019-03-31T18:49:15.949Z,13.70
2019-03-31T18:51:46.203Z,13.60
2019-03-31T18:54:34.006Z,13.60
2019-03-31T18:57:15.640Z,13.60
2019-03-31T19:00:10.716Z,13.50
2019-03-31T19:02:51.650Z,13.40
2019-03-31T19:05:39.617Z,13.50
2019-03-31T19:08:40.868Z,13.60
2019-03-31T19:11:36.822Z,13.70
2019-03-31T19:14:15.454Z,13.70
2019-03-31T19:17:16.998Z,13.80
2019-03-31T19:19:56.604Z,13.70
2019-03-31T19:22:54.975Z,13.60
2019-03-31T19:25:47.029Z,13.60
2019-03-31T19:28:28.174Z,13.50
2019-03-31T19:31:11.441Z,13.50
2019-03-31T19:34:06.881Z,13.40
2019-03-31T19:37:07.965Z,13.40
2019-03-31T19:39:50.870Z,13.30
2019-03-31T19:42:43.056Z,13.30
2019-03-31T19:45:44.411Z,13.20
2019-03-31T19:48:32.579Z,13.20
2019-03-31T19:51:26.146Z,13.10
2019-03-31T19:54:08.381Z,13.00
2019-03-31T19:56:58.030Z,12.90
2019-03-31T19:59:56.498Z,12.90
2019-03-31T20:02:44.103Z,12.90
2019-03-31T20:05:33.449Z,12.80
2019-03-31T20:08:25.855Z,12.90
2019-03-31T20:11:18.451Z,12.80
2019-03-31T20:14:07.777Z,12.70
2019-03-31T20:16:45.575Z,12.70
2019-03-31T20:19:34.670Z,12.60
2019-03-31T20:22:42.168Z,12.60
2019-03-31T20:25:26.584Z,12.50
2019-03-31T20:28:07.056Z,12.40
2019-03-31T20:30:51.861Z,12.30
2019-03-31T20:33:44.082Z,12.20
2019-03-31T20:36:32.151Z,12.00
2019-03-31T20:39:12.366Z,11.90
2019-03-31T20:41:53.719Z,11.80
2019-03-31T20:44:24.165Z,11.70
2019-03-31T20:46:54.593Z,11.60
2019-03-31T20:49:24.902Z,11.50
2019-03-31T20:51:55.365Z,11.50
2019-03-31T20:54:25.826Z,11.50
2019-03-31T20:56:56.068Z,11.40
2019-03-31T20:59:26.369Z,11.30
2019-03-31T21:03:18.507Z,11.20
2019-03-31T21:05:48.914Z,11.20
2019-03-31T21:08:19.349Z,11.20
2019-03-31T21:10:49.919Z,11.20
2019-03-31T21:13:20.303Z,11.10
2019-03-31T21:15:50.703Z,11.10
2019-03-31T21:18:21.072Z,11.20
2019-03-31T21:20:51.521Z,11.20
2019-03-31T21:23:21.870Z,11.30
2019-03-31T21:25:52.300Z,11.20
2019-03-31T21:28:22.690Z,11.10
2019-03-31T21:30:53.167Z,11.10
2019-03-31T21:33:23.582Z,11.00
2019-03-31T21:35:53.836Z,10.80
2019-03-31T21:38:24.142Z,10.70
2019-03-31T21:40:54.526Z,10.60
2019-03-31T21:43:25.553Z,10.50
2019-03-31T21:45:55.866Z,10.40
2019-03-31T21:48:26.296Z,10.30
2019-03-31T21:50:57.264Z,10.20
2019-03-31T21:53:27.496Z,10.20
2019-03-31T21:55:58.015Z,10.20
2019-03-31T21:58:28.514Z,10.10
2019-03-31T22:00:59.910Z,10.10
2019-03-31T22:03:30.229Z,10.10
2019-03-31T22:06:01.047Z,10.20
2019-03-31T22:08:31.278Z,10.20
2019-03-31T22:11:03.151Z,10.30
2019-03-31T22:13:34.986Z,10.40
2019-03-31T22:16:05.580Z,10.50
2019-03-31T22:18:35.797Z,10.40
2019-03-31T22:21:06.363Z,10.30
2019-03-31T22:23:38.416Z,10.20
2019-03-31T22:26:08.681Z,10.20
2019-03-31T22:28:39.071Z,10.10
2019-03-31T22:31:09.478Z,10.10
2019-03-31T22:33:41.040Z,10.10
